sensor_id;sensor_type;location;lat;lon;timestamp;pressure;altitude;pressure_sealevel;temperature;humidity
43115;BME280;28727;50.068;14.452;2023-02-21T00:01:02;99275.22;;;8.75;59.87
43115;BME280;28727;50.068;14.452;2023-02-21T00:03:52;99277.16;;;8.73;60.31
43115;BME280;28727;50.068;14.452;2023-02-21T00:06:45;99274.88;;;8.70;60.90
43115;BME280;28727;50.068;14.452;2023-02-21T00:09:37;99274.88;;;8.70;60.49
43115;BME280;28727;50.068;14.452;2023-02-21T00:12:28;99275.69;;;8.71;60.64
43115;BME280;28727;50.068;14.452;2023-02-21T00:15:18;99274.03;;;8.70;60.61
43115;BME280;28727;50.068;14.452;2023-02-21T00:18:08;99275.84;;;8.69;60.85
43115;BME280;28727;50.068;14.452;2023-02-21T00:20:59;99264.63;;;8.67;60.59
43115;BME280;28727;50.068;14.452;2023-02-21T00:23:49;99269.41;;;8.63;60.93
43115;BME280;28727;50.068;14.452;2023-02-21T00:26:40;99277.47;;;8.62;61.12
43115;BME280;28727;50.068;14.452;2023-02-21T00:29:30;99273.03;;;8.62;61.74
43115;BME280;28727;50.068;14.452;2023-02-21T00:32:21;99281.75;;;8.63;61.10
43115;BME280;28727;50.068;14.452;2023-02-21T00:35:12;99277.59;;;8.60;60.69
43115;BME280;28727;50.068;14.452;2023-02-21T00:38:03;99271.84;;;8.57;61.32
43115;BME280;28727;50.068;14.452;2023-02-21T00:40:56;99271.16;;;8.55;62.16
43115;BME280;28727;50.068;14.452;2023-02-21T00:43:47;99276.13;;;8.58;61.54
43115;BME280;28727;50.068;14.452;2023-02-21T00:46:38;99280.22;;;8.52;61.38
43115;BME280;28727;50.068;14.452;2023-02-21T00:49:29;99287.44;;;8.50;62.39
43115;BME280;28727;50.068;14.452;2023-02-21T00:52:19;99289.56;;;8.47;62.06
43115;BME280;28727;50.068;14.452;2023-02-21T00:55:13;99287.09;;;8.45;62.36
43115;BME280;28727;50.068;14.452;2023-02-21T00:58:03;99285.22;;;8.38;62.47
43115;BME280;28727;50.068;14.452;2023-02-21T01:00:53;99293.31;;;8.36;62.37
43115;BME280;28727;50.068;14.452;2023-02-21T01:03:44;99275.88;;;8.35;62.95
43115;BME280;28727;50.068;14.452;2023-02-21T01:06:35;99279.13;;;8.37;62.84
43115;BME280;28727;50.068;14.452;2023-02-21T01:09:25;99272.41;;;8.35;62.67
43115;BME280;28727;50.068;14.452;2023-02-21T01:12:17;99273.38;;;8.34;63.22
43115;BME280;28727;50.068;14.452;2023-02-21T01:15:07;99278.78;;;8.32;62.89
43115;BME280;28727;50.068;14.452;2023-02-21T01:17:57;99280.59;;;8.32;63.06
43115;BME280;28727;50.068;14.452;2023-02-21T01:20:48;99291.94;;;8.32;63.39
43115;BME280;28727;50.068;14.452;2023-02-21T01:23:38;99278.13;;;8.30;63.82
43115;BME280;28727;50.068;14.452;2023-02-21T01:26:28;99278.78;;;8.32;63.14
43115;BME280;28727;50.068;14.452;2023-02-21T01:29:21;99274.19;;;8.34;63.59
43115;BME280;28727;50.068;14.452;2023-02-21T01:32:11;99271.44;;;8.36;63.71
43115;BME280;28727;50.068;14.452;2023-02-21T01:35:03;99273.72;;;8.39;63.18
43115;BME280;28727;50.068;14.452;2023-02-21T01:37:56;99279.00;;;8.39;63.25
43115;BME280;28727;50.068;14.452;2023-02-21T01:40:46;99272.91;;;8.38;63.05
43115;BME280;28727;50.068;14.452;2023-02-21T01:43:56;99269.28;;;8.39;63.36
43115;BME280;28727;50.068;14.452;2023-02-21T01:46:46;99271.09;;;8.39;63.45
43115;BME280;28727;50.068;14.452;2023-02-21T01:49:38;99258.09;;;8.37;63.76
43115;BME280;28727;50.068;14.452;2023-02-21T01:52:30;99261.53;;;8.38;63.68
43115;BME280;28727;50.068;14.452;2023-02-21T01:55:20;99256.13;;;8.39;63.62
43115;BME280;28727;50.068;14.452;2023-02-21T01:58:10;99266.81;;;8.38;63.98
43115;BME280;28727;50.068;14.452;2023-02-21T02:01:01;99260.56;;;8.39;63.15
43115;BME280;28727;50.068;14.452;2023-02-21T02:03:51;99264.84;;;8.40;63.89
43115;BME280;28727;50.068;14.452;2023-02-21T02:06:41;99258.47;;;8.42;63.63
43115;BME280;28727;50.068;14.452;2023-02-21T02:09:37;99260.78;;;8.45;64.24
43115;BME280;28727;50.068;14.452;2023-02-21T02:27:49;99256.09;;;8.65;63.68
43115;BME280;28727;50.068;14.452;2023-02-21T02:33:52;99257.72;;;8.66;63.04
43115;BME280;28727;50.068;14.452;2023-02-21T02:36:41;99245.38;;;8.67;63.03
43115;BME280;28727;50.068;14.452;2023-02-21T02:48:19;99223.81;;;8.63;63.90
43115;BME280;28727;50.068;14.452;2023-02-21T02:50:52;99225.97;;;8.59;64.04
43115;BME280;28727;50.068;14.452;2023-02-21T02:53:28;99226.75;;;8.60;63.78
43115;BME280;28727;50.068;14.452;2023-02-21T02:56:05;99220.84;;;8.58;63.97
43115;BME280;28727;50.068;14.452;2023-02-21T02:58:42;99220.69;;;8.59;63.99
43115;BME280;28727;50.068;14.452;2023-02-21T03:07:40;99216.06;;;8.61;63.96
43115;BME280;28727;50.068;14.452;2023-02-21T03:13:04;99211.34;;;8.65;64.35
43115;BME280;28727;50.068;14.452;2023-02-21T03:15:47;99221.03;;;8.65;64.20
43115;BME280;28727;50.068;14.452;2023-02-21T03:18:47;99220.69;;;8.68;64.00
43115;BME280;28727;50.068;14.452;2023-02-21T03:21:24;99220.41;;;8.71;63.91
43115;BME280;28727;50.068;14.452;2023-02-21T03:23:59;99211.69;;;8.70;64.25
43115;BME280;28727;50.068;14.452;2023-02-21T03:26:35;99223.53;;;8.74;63.75
43115;BME280;28727;50.068;14.452;2023-02-21T03:29:28;99231.75;;;8.79;63.55
43115;BME280;28727;50.068;14.452;2023-02-21T03:32:08;99228.63;;;8.76;63.79
43115;BME280;28727;50.068;14.452;2023-02-21T03:34:42;99215.31;;;8.77;64.07
43115;BME280;28727;50.068;14.452;2023-02-21T03:37:31;99226.50;;;8.79;63.91
43115;BME280;28727;50.068;14.452;2023-02-21T03:40:07;99220.59;;;8.85;63.46
43115;BME280;28727;50.068;14.452;2023-02-21T03:42:40;99225.03;;;8.85;63.82
43115;BME280;28727;50.068;14.452;2023-02-21T03:45:12;99222.09;;;8.88;63.32
43115;BME280;28727;50.068;14.452;2023-02-21T03:47:45;99223.75;;;8.89;64.24
43115;BME280;28727;50.068;14.452;2023-02-21T03:50:17;99221.59;;;8.92;63.40
43115;BME280;28727;50.068;14.452;2023-02-21T03:52:49;99218.13;;;8.92;64.07
43115;BME280;28727;50.068;14.452;2023-02-21T03:55:21;99208.28;;;8.94;63.70
43115;BME280;28727;50.068;14.452;2023-02-21T03:57:53;99201.84;;;8.96;63.61
43115;BME280;28727;50.068;14.452;2023-02-21T04:00:26;99202.38;;;9.00;63.42
43115;BME280;28727;50.068;14.452;2023-02-21T04:02:59;99203.00;;;9.02;63.97
43115;BME280;28727;50.068;14.452;2023-02-21T04:05:49;99188.69;;;9.04;63.23
43115;BME280;28727;50.068;14.452;2023-02-21T04:08:22;99193.97;;;9.13;63.51
43115;BME280;28727;50.068;14.452;2023-02-21T04:10:54;99199.06;;;9.06;63.04
43115;BME280;28727;50.068;14.452;2023-02-21T04:13:29;99194.78;;;9.05;63.54
43115;BME280;28727;50.068;14.452;2023-02-21T04:16:02;99188.69;;;9.04;63.16
43115;BME280;28727;50.068;14.452;2023-02-21T04:18:37;99196.44;;;9.06;63.62
43115;BME280;28727;50.068;14.452;2023-02-21T04:21:15;99194.13;;;9.11;63.65
43115;BME280;28727;50.068;14.452;2023-02-21T04:23:47;99202.53;;;9.15;63.00
43115;BME280;28727;50.068;14.452;2023-02-21T04:26:19;99186.22;;;9.19;63.44
43115;BME280;28727;50.068;14.452;2023-02-21T04:28:54;99192.66;;;9.17;63.23
43115;BME280;28727;50.068;14.452;2023-02-21T04:31:27;99193.63;;;9.16;63.34
43115;BME280;28727;50.068;14.452;2023-02-21T04:34:02;99189.88;;;9.18;63.35
43115;BME280;28727;50.068;14.452;2023-02-21T04:36:46;99190.69;;;9.19;62.85
43115;BME280;28727;50.068;14.452;2023-02-21T04:39:19;99189.53;;;9.21;62.77
43115;BME280;28727;50.068;14.452;2023-02-21T04:41:55;99181.78;;;9.20;62.94
43115;BME280;28727;50.068;14.452;2023-02-21T04:44:27;99186.06;;;9.21;62.83
43115;BME280;28727;50.068;14.452;2023-02-21T04:46:58;99195.78;;;9.20;62.90
43115;BME280;28727;50.068;14.452;2023-02-21T04:49:30;99188.69;;;9.21;62.88
43115;BME280;28727;50.068;14.452;2023-02-21T04:52:02;99171.56;;;9.17;62.82
43115;BME280;28727;50.068;14.452;2023-02-21T04:54:34;99181.28;;;9.16;63.08
43115;BME280;28727;50.068;14.452;2023-02-21T04:57:05;99187.69;;;9.14;63.47
43115;BME280;28727;50.068;14.452;2023-02-21T04:59:37;99180.97;;;9.11;63.13
43115;BME280;28727;50.068;14.452;2023-02-21T05:02:09;99177.50;;;9.11;63.66
43115;BME280;28727;50.068;14.452;2023-02-21T05:04:40;99166.78;;;9.04;63.51
43115;BME280;28727;50.068;14.452;2023-02-21T05:07:13;99184.91;;;9.07;63.61
43115;BME280;28727;50.068;14.452;2023-02-21T05:09:48;99182.09;;;9.09;63.79
43115;BME280;28727;50.068;14.452;2023-02-21T05:12:20;99175.53;;;9.13;63.20
43115;BME280;28727;50.068;14.452;2023-02-21T05:14:52;99176.19;;;9.15;63.67
43115;BME280;28727;50.068;14.452;2023-02-21T05:17:23;99167.63;;;9.13;63.61
43115;BME280;28727;50.068;14.452;2023-02-21T05:19:56;99167.44;;;9.14;63.41
43115;BME280;28727;50.068;14.452;2023-02-21T05:22:27;99165.47;;;9.16;63.14
43115;BME280;28727;50.068;14.452;2023-02-21T05:24:59;99165.00;;;9.13;62.97
43115;BME280;28727;50.068;14.452;2023-02-21T05:27:31;99160.88;;;9.10;63.30
43115;BME280;28727;50.068;14.452;2023-02-21T05:30:03;99157.56;;;9.08;63.29
43115;BME280;28727;50.068;14.452;2023-02-21T05:32:35;99150.66;;;9.07;63.41
43115;BME280;28727;50.068;14.452;2023-02-21T05:35:08;99149.34;;;9.03;63.54
43115;BME280;28727;50.068;14.452;2023-02-21T05:37:40;99141.59;;;9.01;63.49
43115;BME280;28727;50.068;14.452;2023-02-21T05:40:14;99138.94;;;9.01;64.09
43115;BME280;28727;50.068;14.452;2023-02-21T05:42:47;99135.53;;;9.01;63.77
43115;BME280;28727;50.068;14.452;2023-02-21T05:45:19;99141.94;;;9.07;63.90
43115;BME280;28727;50.068;14.452;2023-02-21T05:47:51;99141.44;;;8.95;64.26
43115;BME280;28727;50.068;14.452;2023-02-21T05:50:30;99136.97;;;8.95;63.62
43115;BME280;28727;50.068;14.452;2023-02-21T05:53:01;99146.03;;;8.93;64.22
43115;BME280;28727;50.068;14.452;2023-02-21T05:55:33;99145.88;;;8.94;64.20
43115;BME280;28727;50.068;14.452;2023-02-21T05:58:05;99164.50;;;9.01;64.55
43115;BME280;28727;50.068;14.452;2023-02-21T06:00:37;99171.22;;;8.95;64.13
43115;BME280;28727;50.068;14.452;2023-02-21T06:03:08;99172.03;;;8.96;64.79
43115;BME280;28727;50.068;14.452;2023-02-21T06:05:40;99175.03;;;9.01;64.50
43115;BME280;28727;50.068;14.452;2023-02-21T06:08:12;99182.75;;;9.02;64.22
43115;BME280;28727;50.068;14.452;2023-02-21T06:10:44;99181.78;;;9.03;64.38
43115;BME280;28727;50.068;14.452;2023-02-21T06:13:18;99183.09;;;9.08;64.32
43115;BME280;28727;50.068;14.452;2023-02-21T06:15:50;99181.13;;;9.10;64.05
43115;BME280;28727;50.068;14.452;2023-02-21T06:18:22;99186.38;;;9.10;64.10
43115;BME280;28727;50.068;14.452;2023-02-21T06:20:54;99184.25;;;9.13;64.16
43115;BME280;28727;50.068;14.452;2023-02-21T06:23:26;99191.00;;;9.16;64.17
43115;BME280;28727;50.068;14.452;2023-02-21T06:25:57;99196.75;;;9.19;63.92
43115;BME280;28727;50.068;14.452;2023-02-21T06:28:30;99200.06;;;9.21;63.90
43115;BME280;28727;50.068;14.452;2023-02-21T06:31:04;99190.84;;;9.25;63.37
43115;BME280;28727;50.068;14.452;2023-02-21T06:33:35;99200.91;;;9.30;63.30
43115;BME280;28727;50.068;14.452;2023-02-21T06:36:11;99205.00;;;9.32;63.08
43115;BME280;28727;50.068;14.452;2023-02-21T06:38:47;99218.69;;;9.28;63.14
43115;BME280;28727;50.068;14.452;2023-02-21T06:41:27;99215.72;;;9.31;63.67
43115;BME280;28727;50.068;14.452;2023-02-21T06:43:59;99219.84;;;9.33;63.36
43115;BME280;28727;50.068;14.452;2023-02-21T06:46:31;99209.78;;;9.37;63.43
43115;BME280;28727;50.068;14.452;2023-02-21T06:49:03;99215.91;;;9.45;63.20
43115;BME280;28727;50.068;14.452;2023-02-21T06:51:38;99216.88;;;9.53;63.26
43115;BME280;28727;50.068;14.452;2023-02-21T06:54:11;99221.66;;;9.57;63.07
43115;BME280;28727;50.068;14.452;2023-02-21T06:56:43;99234.84;;;9.57;62.66
43115;BME280;28727;50.068;14.452;2023-02-21T06:59:17;99239.13;;;9.58;62.55
43115;BME280;28727;50.068;14.452;2023-02-21T07:01:49;99231.88;;;9.60;62.86
43115;BME280;28727;50.068;14.452;2023-02-21T07:04:21;99240.28;;;9.64;62.29
43115;BME280;28727;50.068;14.452;2023-02-21T07:06:53;99248.53;;;9.69;62.55
43115;BME280;28727;50.068;14.452;2023-02-21T07:09:25;99244.38;;;9.66;62.25
43115;BME280;28727;50.068;14.452;2023-02-21T07:11:57;99254.78;;;9.68;62.52
43115;BME280;28727;50.068;14.452;2023-02-21T07:14:29;99241.25;;;9.79;62.13
43115;BME280;28727;50.068;14.452;2023-02-21T07:17:01;99254.09;;;9.90;62.09
43115;BME280;28727;50.068;14.452;2023-02-21T07:19:32;99247.00;;;9.99;61.81
43115;BME280;28727;50.068;14.452;2023-02-21T07:22:04;99251.78;;;10.11;61.53
43115;BME280;28727;50.068;14.452;2023-02-21T07:24:36;99244.19;;;10.24;61.38
43115;BME280;28727;50.068;14.452;2023-02-21T07:27:08;99249.94;;;10.36;60.83
43115;BME280;28727;50.068;14.452;2023-02-21T07:29:39;99246.53;;;10.97;60.00
43115;BME280;28727;50.068;14.452;2023-02-21T07:32:11;99239.09;;;12.21;56.65
43115;BME280;28727;50.068;14.452;2023-02-21T07:34:43;99221.56;;;14.41;52.40
43115;BME280;28727;50.068;14.452;2023-02-21T07:37:15;99221.16;;;16.56;46.84
43115;BME280;28727;50.068;14.452;2023-02-21T07:39:46;99212.22;;;18.87;41.86
43115;BME280;28727;50.068;14.452;2023-02-21T07:42:18;99216.69;;;20.69;39.11
43115;BME280;28727;50.068;14.452;2023-02-21T07:44:57;99203.78;;;22.01;35.22
43115;BME280;28727;50.068;14.452;2023-02-21T07:47:29;99211.38;;;22.65;33.72
43115;BME280;28727;50.068;14.452;2023-02-21T07:50:00;99216.41;;;21.22;34.41
43115;BME280;28727;50.068;14.452;2023-02-21T07:52:32;99220.22;;;20.00;36.63
43115;BME280;28727;50.068;14.452;2023-02-21T07:55:04;99230.59;;;18.84;38.65
43115;BME280;28727;50.068;14.452;2023-02-21T07:57:36;99229.19;;;17.77;40.34
43115;BME280;28727;50.068;14.452;2023-02-21T08:00:08;99242.34;;;16.45;42.67
43115;BME280;28727;50.068;14.452;2023-02-21T08:02:47;99238.03;;;15.38;44.91
43115;BME280;28727;50.068;14.452;2023-02-21T08:05:21;99247.69;;;14.72;46.25
43115;BME280;28727;50.068;14.452;2023-02-21T08:07:53;99256.28;;;14.12;47.61
43115;BME280;28727;50.068;14.452;2023-02-21T08:10:26;99251.09;;;13.76;48.66
43115;BME280;28727;50.068;14.452;2023-02-21T08:12:59;99257.13;;;13.42;49.53
43115;BME280;28727;50.068;14.452;2023-02-21T08:15:31;99265.50;;;13.09;50.86
43115;BME280;28727;50.068;14.452;2023-02-21T08:18:03;99265.56;;;12.80;51.41
43115;BME280;28727;50.068;14.452;2023-02-21T08:20:34;99271.72;;;12.66;52.09
43115;BME280;28727;50.068;14.452;2023-02-21T08:23:06;99273.28;;;12.46;52.62
43115;BME280;28727;50.068;14.452;2023-02-21T08:25:38;99277.44;;;12.25;53.03
43115;BME280;28727;50.068;14.452;2023-02-21T08:28:10;99276.53;;;12.18;53.82
43115;BME280;28727;50.068;14.452;2023-02-21T08:30:42;99275.63;;;12.11;53.65
43115;BME280;28727;50.068;14.452;2023-02-21T08:33:14;99283.19;;;12.00;53.97
43115;BME280;28727;50.068;14.452;2023-02-21T08:35:45;99275.84;;;11.87;54.51
43115;BME280;28727;50.068;14.452;2023-02-21T08:38:18;99283.56;;;11.74;54.92
43115;BME280;28727;50.068;14.452;2023-02-21T08:40:49;99278.94;;;11.68;55.35
43115;BME280;28727;50.068;14.452;2023-02-21T08:43:23;99282.13;;;11.63;55.54
43115;BME280;28727;50.068;14.452;2023-02-21T08:45:56;99278.66;;;11.63;55.81
43115;BME280;28727;50.068;14.452;2023-02-21T08:48:27;99275.84;;;11.64;55.61
43115;BME280;28727;50.068;14.452;2023-02-21T08:50:59;99279.22;;;11.73;56.10
43115;BME280;28727;50.068;14.452;2023-02-21T08:53:31;99271.72;;;11.84;55.69
43115;BME280;28727;50.068;14.452;2023-02-21T08:56:02;99275.94;;;11.94;55.78
43115;BME280;28727;50.068;14.452;2023-02-21T08:58:34;99278.91;;;12.13;55.22
43115;BME280;28727;50.068;14.452;2023-02-21T09:01:08;99271.16;;;12.70;54.32
43115;BME280;28727;50.068;14.452;2023-02-21T09:03:41;99263.88;;;13.44;52.87
43115;BME280;28727;50.068;14.452;2023-02-21T09:06:13;99255.28;;;14.13;50.63
43115;BME280;28727;50.068;14.452;2023-02-21T09:08:46;99262.22;;;14.76;49.59
43115;BME280;28727;50.068;14.452;2023-02-21T09:11:18;99275.66;;;15.15;48.46
43115;BME280;28727;50.068;14.452;2023-02-21T09:13:50;99265.97;;;15.69;47.19
43115;BME280;28727;50.068;14.452;2023-02-21T09:16:25;99275.59;;;16.29;46.21
43115;BME280;28727;50.068;14.452;2023-02-21T09:18:58;99265.03;;;16.80;46.75
43115;BME280;28727;50.068;14.452;2023-02-21T09:21:32;99272.25;;;17.24;46.28
43115;BME280;28727;50.068;14.452;2023-02-21T09:24:07;99260.94;;;17.67;45.80
43115;BME280;28727;50.068;14.452;2023-02-21T09:26:38;99262.59;;;17.86;43.91
43115;BME280;28727;50.068;14.452;2023-02-21T09:29:10;99266.72;;;18.13;43.06
43115;BME280;28727;50.068;14.452;2023-02-21T09:31:42;99263.63;;;18.10;42.34
43115;BME280;28727;50.068;14.452;2023-02-21T09:34:17;99275.16;;;17.54;45.20
43115;BME280;28727;50.068;14.452;2023-02-21T09:36:48;99275.28;;;17.28;44.48
43115;BME280;28727;50.068;14.452;2023-02-21T09:39:24;99281.47;;;16.77;48.21
43115;BME280;28727;50.068;14.452;2023-02-21T09:41:56;99284.19;;;16.37;46.69
43115;BME280;28727;50.068;14.452;2023-02-21T09:44:29;99290.56;;;16.10;48.53
43115;BME280;28727;50.068;14.452;2023-02-21T09:47:03;99287.91;;;15.97;48.69
43115;BME280;28727;50.068;14.452;2023-02-21T09:49:39;99294.06;;;15.78;47.84
43115;BME280;28727;50.068;14.452;2023-02-21T09:52:26;99295.91;;;15.71;48.92
43115;BME280;28727;50.068;14.452;2023-02-21T09:55:28;99293.97;;;15.51;49.69
43115;BME280;28727;50.068;14.452;2023-02-21T09:58:01;99303.72;;;15.18;48.63
43115;BME280;28727;50.068;14.452;2023-02-21T10:00:35;99295.47;;;15.00;51.04
43115;BME280;28727;50.068;14.452;2023-02-21T10:06:18;99303.44;;;15.00;50.32
43115;BME280;28727;50.068;14.452;2023-02-21T10:14:20;99307.84;;;14.80;52.63
43115;BME280;28727;50.068;14.452;2023-02-21T10:16:59;99308.63;;;14.73;52.38
43115;BME280;28727;50.068;14.452;2023-02-21T10:19:44;99316.56;;;14.67;51.70
43115;BME280;28727;50.068;14.452;2023-02-21T10:22:32;99322.72;;;14.40;52.74
43115;BME280;28727;50.068;14.452;2023-02-21T10:25:24;99323.94;;;14.37;53.73
43115;BME280;28727;50.068;14.452;2023-02-21T10:27:58;99320.53;;;14.50;52.69
43115;BME280;28727;50.068;14.452;2023-02-21T10:30:36;99328.78;;;14.55;52.58
43115;BME280;28727;50.068;14.452;2023-02-21T10:33:09;99324.06;;;14.57;52.79
43115;BME280;28727;50.068;14.452;2023-02-21T10:35:40;99326.50;;;14.52;51.44
43115;BME280;28727;50.068;14.452;2023-02-21T10:38:15;99327.81;;;14.13;50.66
43115;BME280;28727;50.068;14.452;2023-02-21T10:40:57;99328.53;;;13.79;51.43
43115;BME280;28727;50.068;14.452;2023-02-21T10:43:34;99330.53;;;13.56;52.32
43115;BME280;28727;50.068;14.452;2023-02-21T10:46:24;99337.25;;;13.37;52.39
43115;BME280;28727;50.068;14.452;2023-02-21T10:49:30;99332.72;;;13.31;52.72
43115;BME280;28727;50.068;14.452;2023-02-21T10:54:37;99331.19;;;13.22;53.13
43115;BME280;28727;50.068;14.452;2023-02-21T10:57:10;99324.97;;;13.15;53.02
43115;BME280;28727;50.068;14.452;2023-02-21T10:59:47;99325.34;;;13.12;53.13
43115;BME280;28727;50.068;14.452;2023-02-21T11:05:16;99324.88;;;12.94;53.80
43115;BME280;28727;50.068;14.452;2023-02-21T11:08:06;99331.94;;;12.87;54.36
43115;BME280;28727;50.068;14.452;2023-02-21T11:10:41;99331.38;;;12.91;54.17
43115;BME280;28727;50.068;14.452;2023-02-21T11:13:20;99334.56;;;12.87;54.15
43115;BME280;28727;50.068;14.452;2023-02-21T11:18:38;99328.34;;;12.80;54.26
43115;BME280;28727;50.068;14.452;2023-02-21T11:21:18;99327.81;;;12.84;54.43
43115;BME280;28727;50.068;14.452;2023-02-21T11:23:54;99325.97;;;12.85;54.65
43115;BME280;28727;50.068;14.452;2023-02-21T11:26:52;99319.22;;;12.82;54.68
43115;BME280;28727;50.068;14.452;2023-02-21T11:29:25;99321.34;;;12.72;54.90
43115;BME280;28727;50.068;14.452;2023-02-21T11:31:57;99315.31;;;12.63;54.76
43115;BME280;28727;50.068;14.452;2023-02-21T11:34:29;99310.06;;;12.55;54.93
43115;BME280;28727;50.068;14.452;2023-02-21T11:37:03;99320.88;;;12.54;55.08
43115;BME280;28727;50.068;14.452;2023-02-21T11:39:35;99317.38;;;12.39;55.48
43115;BME280;28727;50.068;14.452;2023-02-21T11:42:25;99317.09;;;12.34;55.58
43115;BME280;28727;50.068;14.452;2023-02-21T11:45:23;99315.81;;;12.29;55.88
43115;BME280;28727;50.068;14.452;2023-02-21T11:48:04;99321.94;;;12.30;56.08
43115;BME280;28727;50.068;14.452;2023-02-21T11:50:41;99316.38;;;12.25;56.31
43115;BME280;28727;50.068;14.452;2023-02-21T11:53:51;99315.72;;;12.23;56.53
43115;BME280;28727;50.068;14.452;2023-02-21T11:56:33;99305.78;;;12.25;56.45
43115;BME280;28727;50.068;14.452;2023-02-21T12:10:48;99303.47;;;12.22;56.56
43115;BME280;28727;50.068;14.452;2023-02-21T12:24:54;99298.06;;;12.15;57.06
43115;BME280;28727;50.068;14.452;2023-02-21T12:27:40;99287.66;;;12.14;57.15
43115;BME280;28727;50.068;14.452;2023-02-21T12:30:38;99289.31;;;12.15;56.78
43115;BME280;28727;50.068;14.452;2023-02-21T12:36:31;99281.63;;;12.20;56.64
43115;BME280;28727;50.068;14.452;2023-02-21T12:44:21;99283.88;;;12.31;56.43
43115;BME280;28727;50.068;14.452;2023-02-21T12:47:04;99277.53;;;12.32;56.22
43115;BME280;28727;50.068;14.452;2023-02-21T12:49:51;99268.25;;;12.36;56.48
43115;BME280;28727;50.068;14.452;2023-02-21T12:52:33;99262.13;;;12.36;56.69
43115;BME280;28727;50.068;14.452;2023-02-21T12:55:25;99254.81;;;12.38;56.27
43115;BME280;28727;50.068;14.452;2023-02-21T12:58:14;99254.81;;;12.38;56.27
43115;BME280;28727;50.068;14.452;2023-02-21T13:00:56;99246.94;;;12.44;56.02
43115;BME280;28727;50.068;14.452;2023-02-21T13:06:49;99236.72;;;12.56;55.69
43115;BME280;28727;50.068;14.452;2023-02-21T13:12:12;99235.50;;;12.73;55.36
43115;BME280;28727;50.068;14.452;2023-02-21T13:14:49;99234.22;;;12.69;55.55
43115;BME280;28727;50.068;14.452;2023-02-21T13:17:24;99233.06;;;12.71;55.34
43115;BME280;28727;50.068;14.452;2023-02-21T13:20:06;99224.47;;;12.69;55.61
43115;BME280;28727;50.068;14.452;2023-02-21T13:28:31;99242.00;;;12.70;55.25
43115;BME280;28727;50.068;14.452;2023-02-21T13:31:32;99238.88;;;12.67;54.94
43115;BME280;28727;50.068;14.452;2023-02-21T13:34:11;99248.22;;;12.63;55.25
43115;BME280;28727;50.068;14.452;2023-02-21T13:36:45;99235.81;;;12.63;55.39
43115;BME280;28727;50.068;14.452;2023-02-21T13:39:20;99239.72;;;12.67;55.12
43115;BME280;28727;50.068;14.452;2023-02-21T13:42:07;99239.91;;;12.66;55.49
43115;BME280;28727;50.068;14.452;2023-02-21T13:44:42;99230.69;;;12.62;55.59
43115;BME280;28727;50.068;14.452;2023-02-21T13:47:19;99235.28;;;12.53;55.40
43115;BME280;28727;50.068;14.452;2023-02-21T13:49:55;99228.31;;;12.52;55.80
43115;BME280;28727;50.068;14.452;2023-02-21T13:52:36;99237.09;;;12.53;55.45
43115;BME280;28727;50.068;14.452;2023-02-21T13:55:22;99226.31;;;12.54;55.51
43115;BME280;28727;50.068;14.452;2023-02-21T14:08:41;99213.06;;;12.54;55.98
43115;BME280;28727;50.068;14.452;2023-02-21T14:11:23;99216.16;;;12.58;55.56
43115;BME280;28727;50.068;14.452;2023-02-21T14:13:57;99219.81;;;12.57;55.37
43115;BME280;28727;50.068;14.452;2023-02-21T14:22:14;99216.34;;;12.56;55.31
43115;BME280;28727;50.068;14.452;2023-02-21T14:24:50;99218.38;;;12.54;54.96
43115;BME280;28727;50.068;14.452;2023-02-21T14:32:46;99218.06;;;12.49;54.72
43115;BME280;28727;50.068;14.452;2023-02-21T14:35:37;99214.81;;;12.47;55.14
43115;BME280;28727;50.068;14.452;2023-02-21T14:38:24;99215.81;;;12.46;54.88
43115;BME280;28727;50.068;14.452;2023-02-21T14:44:12;99231.53;;;12.48;56.88
43115;BME280;28727;50.068;14.452;2023-02-21T14:50:03;99221.81;;;12.69;56.79
43115;BME280;28727;50.068;14.452;2023-02-21T15:01:54;99218.56;;;12.89;56.61
43115;BME280;28727;50.068;14.452;2023-02-21T15:07:16;99212.63;;;12.87;54.66
43115;BME280;28727;50.068;14.452;2023-02-21T15:12:57;99216.19;;;12.94;55.22
43115;BME280;28727;50.068;14.452;2023-02-21T15:15:42;99212.13;;;12.98;55.33
43115;BME280;28727;50.068;14.452;2023-02-21T15:18:33;99224.06;;;12.87;54.81
43115;BME280;28727;50.068;14.452;2023-02-21T15:23:46;99217.75;;;12.88;56.38
43115;BME280;28727;50.068;14.452;2023-02-21T15:26:24;99217.19;;;12.93;54.89
43115;BME280;28727;50.068;14.452;2023-02-21T15:29:14;99212.88;;;12.92;54.98
43115;BME280;28727;50.068;14.452;2023-02-21T15:31:52;99218.84;;;12.94;55.31
43115;BME280;28727;50.068;14.452;2023-02-21T15:34:30;99226.97;;;12.92;55.22
43115;BME280;28727;50.068;14.452;2023-02-21T15:37:23;99223.06;;;12.88;54.66
43115;BME280;28727;50.068;14.452;2023-02-21T15:40:24;99231.03;;;12.73;54.66
43115;BME280;28727;50.068;14.452;2023-02-21T15:42:56;99226.03;;;12.64;54.59
43115;BME280;28727;50.068;14.452;2023-02-21T15:45:32;99219.56;;;12.52;54.89
43115;BME280;28727;50.068;14.452;2023-02-21T15:48:06;99221.66;;;12.42;55.15
43115;BME280;28727;50.068;14.452;2023-02-21T15:50:41;99222.00;;;12.39;55.34
43115;BME280;28727;50.068;14.452;2023-02-21T15:53:23;99222.41;;;12.36;55.52
43115;BME280;28727;50.068;14.452;2023-02-21T15:56:23;99222.56;;;12.34;55.89
43115;BME280;28727;50.068;14.452;2023-02-21T15:59:29;99221.56;;;12.20;56.20
43115;BME280;28727;50.068;14.452;2023-02-21T16:04:46;99229.06;;;12.17;56.62
43115;BME280;28727;50.068;14.452;2023-02-21T16:09:59;99228.78;;;12.12;56.96
43115;BME280;28727;50.068;14.452;2023-02-21T16:12:39;99227.47;;;12.08;57.04
43115;BME280;28727;50.068;14.452;2023-02-21T16:26:01;99237.53;;;11.98;57.78
43115;BME280;28727;50.068;14.452;2023-02-21T16:28:35;99233.78;;;11.92;57.93
43115;BME280;28727;50.068;14.452;2023-02-21T16:31:15;99236.41;;;11.92;57.81
43115;BME280;28727;50.068;14.452;2023-02-21T16:33:48;99243.53;;;11.92;57.73